createdAt,value
2019-04-20T00:01:26.160Z,45.80
2019-04-20T00:03:51.907Z,45.80
2019-04-20T00:06:21.482Z,45.80
2019-04-20T00:08:55.486Z,45.80
2019-04-20T00:11:27.589Z,45.80
2019-04-20T00:13:59.911Z,45.80
2019-04-20T00:16:21.422Z,45.80
2019-04-20T00:18:54.868Z,46.50
2019-04-20T00:21:43.126Z,45.80
2019-04-20T00:24:20.042Z,45.80
2019-04-20T00:27:11.714Z,45.80
2019-04-20T00:29:38.040Z,45.90
2019-04-20T00:32:00.491Z,45.80
2019-04-20T00:34:23.054Z,45.80
2019-04-20T00:36:47.463Z,45.90
2019-04-20T00:39:18.509Z,45.80
2019-04-20T00:41:54.882Z,45.90
2019-04-20T00:44:24.261Z,45.90
2019-04-20T00:47:06.083Z,45.90
2019-04-20T00:49:32.221Z,45.90
2019-04-20T00:52:18.673Z,45.90
2019-04-20T00:54:20.121Z,45.90
2019-04-20T00:56:49.872Z,45.90
2019-04-20T00:59:31.674Z,45.90
2019-04-20T01:02:09.671Z,45.90
2019-04-20T01:04:46.195Z,45.90
2019-04-20T01:07:19.509Z,45.90
2019-04-20T01:09:56.282Z,46.00
2019-04-20T01:12:28.585Z,46.00
2019-04-20T01:15:02.300Z,46.00
2019-04-20T01:17:26.507Z,45.90
2019-04-20T01:19:55.169Z,45.90
2019-04-20T01:22:27.287Z,45.90
2019-04-20T01:24:55.019Z,46.00
2019-04-20T01:27:37.673Z,46.00
2019-04-20T01:30:07.067Z,46.00
2019-04-20T01:32:34.460Z,46.00
2019-04-20T01:35:09.999Z,46.00
2019-04-20T01:37:36.015Z,46.00
2019-04-20T01:39:59.216Z,46.00
2019-04-20T01:42:27.538Z,46.00
2019-04-20T01:44:58.321Z,46.00
2019-04-20T01:47:32.089Z,46.00
2019-04-20T01:50:03.373Z,45.90
2019-04-20T01:52:39.615Z,45.90
2019-04-20T01:55:23.008Z,45.90
2019-04-20T01:57:57.860Z,46.00
2019-04-20T02:00:35.245Z,46.00
2019-04-20T02:03:30.540Z,46.00
2019-04-20T02:05:59.116Z,46.00
2019-04-20T02:08:27.455Z,46.00
2019-04-20T02:10:58.659Z,46.00
2019-04-20T02:13:26.396Z,46.00
2019-04-20T02:15:59.007Z,46.00
2019-04-20T02:18:36.722Z,46.00
2019-04-20T02:21:16.593Z,46.00
2019-04-20T02:23:35.691Z,46.00
2019-04-20T02:25:56.694Z,46.00
2019-04-20T02:28:46.473Z,46.00
2019-04-20T02:31:32.856Z,46.00
2019-04-20T02:34:19.848Z,46.10
2019-04-20T02:36:53.192Z,46.00
2019-04-20T02:42:05.415Z,46.00
2019-04-20T02:44:56.482Z,46.00
2019-04-20T02:46:55.972Z,46.10
2019-04-20T02:51:52.420Z,46.00
2019-04-20T02:54:26.495Z,46.10
2019-04-20T03:01:45.101Z,46.10
2019-04-20T03:04:00.741Z,46.10
2019-04-20T03:06:37.532Z,46.10
2019-04-20T03:09:22.550Z,46.10
2019-04-20T03:12:04.870Z,46.10
2019-04-20T03:14:13.727Z,46.80
2019-04-20T03:16:45.546Z,46.10
2019-04-20T03:19:14.568Z,46.10
2019-04-20T03:21:52.641Z,46.10
2019-04-20T03:24:26.744Z,46.10
2019-04-20T03:26:57.027Z,46.10
2019-04-20T03:29:58.966Z,46.10
2019-04-20T03:33:00.375Z,46.10
2019-04-20T03:35:12.159Z,46.10
2019-04-20T03:37:38.215Z,46.20
2019-04-20T03:39:56.730Z,46.10
2019-04-20T03:42:12.919Z,46.10
2019-04-20T03:44:50.117Z,46.10
2019-04-20T03:47:25.440Z,46.10
2019-04-20T03:50:07.251Z,46.20
2019-04-20T03:52:49.731Z,46.10
2019-04-20T03:55:19.853Z,46.10
2019-04-20T03:58:02.934Z,46.10
2019-04-20T04:00:43.432Z,46.20
2019-04-20T04:05:50.902Z,46.20
2019-04-20T04:08:17.056Z,46.10
2019-04-20T04:11:00.043Z,46.10
2019-04-20T04:13:12.071Z,46.10
2019-04-20T04:15:46.552Z,46.10
2019-04-20T04:18:17.731Z,46.20
2019-04-20T04:20:50.061Z,46.10
2019-04-20T04:23:28.689Z,46.20
2019-04-20T04:26:00.846Z,46.20
2019-04-20T04:28:29.872Z,46.20
2019-04-20T04:31:05.181Z,46.20
2019-04-20T04:33:54.908Z,46.20
2019-04-20T04:36:01.074Z,46.20
2019-04-20T04:38:37.649Z,46.20
2019-04-20T04:43:35.950Z,46.20
2019-04-20T04:45:46.950Z,46.20
2019-04-20T04:48:23.801Z,46.20
2019-04-20T04:50:55.376Z,46.20
2019-04-20T04:53:27.162Z,46.20
2019-04-20T04:55:54.638Z,46.20
2019-04-20T04:58:19.415Z,46.20
2019-04-20T05:00:49.345Z,46.20
2019-04-20T05:03:35.387Z,46.20
2019-04-20T05:06:18.716Z,46.30
2019-04-20T05:08:37.741Z,46.20
2019-04-20T05:11:00.651Z,46.20
2019-04-20T05:13:36.825Z,46.20
2019-04-20T05:16:13.006Z,46.30
2019-04-20T05:19:10.071Z,46.30
2019-04-20T05:21:55.153Z,46.20
2019-04-20T05:24:23.170Z,46.20
2019-04-20T05:27:07.173Z,46.10
2019-04-20T05:29:24.037Z,46.20
2019-04-20T05:31:53.725Z,46.10
2019-04-20T05:34:40.348Z,46.10
2019-04-20T05:37:15.061Z,46.10
2019-04-20T05:39:39.947Z,46.00
2019-04-20T05:42:09.553Z,46.00
2019-04-20T05:44:45.571Z,46.00
2019-04-20T05:47:14.187Z,45.90
2019-04-20T05:49:40.203Z,45.90
2019-04-20T05:52:24.075Z,45.90
2019-04-20T05:54:46.048Z,45.80
2019-04-20T05:57:22.524Z,45.80
2019-04-20T05:59:51.582Z,45.70
2019-04-20T06:02:17.953Z,45.80
2019-04-20T06:07:21.436Z,46.20
2019-04-20T06:09:46.383Z,45.60
2019-04-20T06:15:06.861Z,45.40
2019-04-20T06:17:59.431Z,45.40
2019-04-20T06:20:33.368Z,45.40
2019-04-20T06:23:11.908Z,46.00
2019-04-20T06:25:55.852Z,45.40
2019-04-20T06:28:12.580Z,45.40
2019-04-20T06:30:41.676Z,45.40
2019-04-20T06:34:09.143Z,45.40
2019-04-20T06:39:02.669Z,45.40
2019-04-20T06:41:38.002Z,45.40
2019-04-20T06:44:02.150Z,45.50
2019-04-20T06:46:31.592Z,45.50
2019-04-20T06:48:59.266Z,45.50
2019-04-20T06:51:27.702Z,46.50
2019-04-20T06:53:57.681Z,46.60
2019-04-20T06:56:45.868Z,47.10
2019-04-20T06:59:11.936Z,47.10
2019-04-20T07:01:48.867Z,46.90
2019-04-20T07:04:33.494Z,46.70
2019-04-20T07:09:16.965Z,48.20
2019-04-20T07:11:42.583Z,49.50
2019-04-20T07:13:59.226Z,49.70
2019-04-20T07:17:17.949Z,49.10
2019-04-20T07:19:44.417Z,48.80
2019-04-20T07:25:01.298Z,48.10
2019-04-20T07:27:30.828Z,47.80
2019-04-20T07:30:03.818Z,47.60
2019-04-20T07:32:26.013Z,47.40
2019-04-20T07:35:06.321Z,47.30
2019-04-20T07:40:15.170Z,47.00
2019-04-20T07:42:46.805Z,46.90
2019-04-20T07:45:22.926Z,47.20
2019-04-20T07:47:50.845Z,46.60
2019-04-20T07:50:16.033Z,47.00
2019-04-20T07:52:38.697Z,46.50
2019-04-20T07:55:33.959Z,46.30
2019-04-20T07:57:42.909Z,46.50
2019-04-20T08:00:21.452Z,46.90
2019-04-20T08:03:08.922Z,46.70
2019-04-20T08:05:52.707Z,46.60
2019-04-20T08:08:30.891Z,46.60
2019-04-20T08:11:01.280Z,46.50
2019-04-20T08:16:06.594Z,46.70
2019-04-20T08:18:40.019Z,46.50
2019-04-20T08:21:02.684Z,46.50
2019-04-20T08:23:33.515Z,46.30
2019-04-20T08:25:56.877Z,46.20
2019-04-20T08:28:29.394Z,46.10
2019-04-20T08:31:35.954Z,45.90
2019-04-20T08:34:24.301Z,45.60
2019-04-20T08:36:47.785Z,45.50
2019-04-20T08:41:54.296Z,45.80
2019-04-20T08:44:39.701Z,45.00
2019-04-20T08:47:01.613Z,44.90
2019-04-20T08:49:26.497Z,44.80
2019-04-20T08:52:51.416Z,44.70
2019-04-20T08:54:58.126Z,44.50
2019-04-20T08:57:06.985Z,44.50
2019-04-20T08:59:36.684Z,44.30
2019-04-20T09:02:11.516Z,44.20
2019-04-20T09:04:45.202Z,44.20
2019-04-20T09:07:15.258Z,44.10
2019-04-20T09:10:00.815Z,44.00
2019-04-20T09:12:30.812Z,44.00
2019-04-20T09:14:40.226Z,43.90
2019-04-20T09:17:27.226Z,43.80
2019-04-20T09:19:57.850Z,43.70
2019-04-20T09:22:41.212Z,43.60
2019-04-20T09:27:44.935Z,43.50
2019-04-20T09:30:18.804Z,43.50
2019-04-20T09:32:56.617Z,43.50
2019-04-20T09:35:31.253Z,43.30
2019-04-20T09:38:05.158Z,43.20
2019-04-20T09:40:42.981Z,43.10
2019-04-20T09:43:06.943Z,43.10
2019-04-20T09:45:52.274Z,43.10
2019-04-20T09:48:25.208Z,43.10
2019-04-20T09:51:02.266Z,43.00
2019-04-20T09:53:30.137Z,42.90
2019-04-20T09:56:06.256Z,42.80
2019-04-20T09:58:30.915Z,42.80
2019-04-20T10:01:04.424Z,42.60
2019-04-20T10:03:20.536Z,42.60
2019-04-20T10:05:49.706Z,42.60
2019-04-20T10:08:19.633Z,42.60
2019-04-20T10:10:49.461Z,42.50
2019-04-20T10:13:19.539Z,42.20
2019-04-20T10:15:49.979Z,42.40
2019-04-20T10:18:19.740Z,42.30
2019-04-20T10:20:49.591Z,42.20
2019-04-20T10:23:18.881Z,42.10
2019-04-20T10:25:48.787Z,42.20
2019-04-20T10:28:19.366Z,42.10
2019-04-20T10:30:48.420Z,42.10
2019-04-20T10:33:17.638Z,42.00
2019-04-20T10:35:47.669Z,41.90
2019-04-20T10:38:23.411Z,41.90
2019-04-20T10:41:03.444Z,41.90
2019-04-20T10:43:23.863Z,41.70
2019-04-20T10:45:53.075Z,41.80
2019-04-20T10:48:21.785Z,41.60
2019-04-20T10:50:50.570Z,41.40
2019-04-20T10:53:19.678Z,41.50
2019-04-20T10:55:49.491Z,41.30
2019-04-20T10:58:19.660Z,41.20
2019-04-20T11:00:50.112Z,41.10
2019-04-20T11:03:19.750Z,41.10
2019-04-20T11:05:49.092Z,41.10
2019-04-20T11:08:17.864Z,41.70
2019-04-20T11:10:57.909Z,40.90
2019-04-20T11:13:17.265Z,40.90
2019-04-20T11:15:46.468Z,40.90
2019-04-20T11:18:15.525Z,40.90
2019-04-20T11:20:45.617Z,40.90
2019-04-20T11:23:15.845Z,40.80
2019-04-20T11:25:46.302Z,40.90
2019-04-20T11:28:16.632Z,40.70
2019-04-20T11:30:46.110Z,40.70
2019-04-20T11:33:16.136Z,40.80
2019-04-20T11:35:46.885Z,40.80
2019-04-20T11:38:17.400Z,40.40
2019-04-20T11:40:48.245Z,40.30
2019-04-20T11:43:17.824Z,40.40
2019-04-20T11:45:46.808Z,40.20
2019-04-20T11:48:15.827Z,40.30
2019-04-20T11:50:45.448Z,40.30
2019-04-20T11:53:15.343Z,40.10
2019-04-20T11:55:44.833Z,40.00
2019-04-20T11:58:14.241Z,40.00
2019-04-20T12:00:57.537Z,39.80
2019-04-20T12:03:27.344Z,39.80
2019-04-20T12:05:53.746Z,39.50
2019-04-20T12:08:20.769Z,39.70
2019-04-20T12:10:55.866Z,39.80
2019-04-20T12:13:20.628Z,39.60
2019-04-20T12:15:49.665Z,39.70
2019-04-20T12:18:19.825Z,39.60
2019-04-20T12:20:50.359Z,39.50
2019-04-20T12:23:20.235Z,39.50
2019-04-20T12:25:50.193Z,39.40
2019-04-20T12:28:19.854Z,39.40
2019-04-20T12:30:49.391Z,39.40
2019-04-20T12:33:18.094Z,39.40
2019-04-20T12:35:48.038Z,39.50
2019-04-20T12:38:17.462Z,39.50
2019-04-20T12:40:46.245Z,39.50
2019-04-20T12:43:15.220Z,39.70
2019-04-20T12:45:44.746Z,39.60
2019-04-20T12:48:13.585Z,39.80
2019-04-20T12:50:43.697Z,39.90
2019-04-20T12:53:12.951Z,39.90
2019-04-20T12:55:41.677Z,39.60
2019-04-20T12:58:10.588Z,39.90
2019-04-20T13:00:43.829Z,39.90
2019-04-20T13:03:13.745Z,40.00
2019-04-20T13:05:43.617Z,39.90
2019-04-20T13:08:20.707Z,39.90
2019-04-20T13:10:46.538Z,39.90
2019-04-20T13:13:36.562Z,40.00
2019-04-20T13:16:16.470Z,40.00
2019-04-20T13:18:55.239Z,40.00
2019-04-20T13:21:25.051Z,40.00
2019-04-20T13:23:56.235Z,40.00
2019-04-20T13:26:25.119Z,40.00
2019-04-20T13:28:55.096Z,40.10
2019-04-20T13:31:24.209Z,40.10
2019-04-20T13:33:53.013Z,40.00
2019-04-20T13:36:22.092Z,40.00
2019-04-20T13:38:52.257Z,40.00
2019-04-20T13:41:22.057Z,40.00
2019-04-20T13:43:51.217Z,40.10
2019-04-20T13:46:20.834Z,40.10
2019-04-20T13:48:51.065Z,40.00
2019-04-20T13:51:21.034Z,40.00
2019-04-20T13:53:51.010Z,40.10
2019-04-20T13:56:21.782Z,40.00
2019-04-20T13:59:21.848Z,40.10
2019-04-20T14:02:11.697Z,40.10
2019-04-20T14:04:48.679Z,40.10
2019-04-20T14:07:19.123Z,40.80
2019-04-20T14:09:48.284Z,40.10
2019-04-20T14:12:25.181Z,40.10
2019-04-20T14:14:48.848Z,40.00
2019-04-20T14:17:19.100Z,40.00
2019-04-20T14:19:49.210Z,40.00
2019-04-20T14:22:24.873Z,39.90
2019-04-20T14:24:55.046Z,40.00
2019-04-20T14:27:24.596Z,39.90
2019-04-20T14:29:55.020Z,39.80
2019-04-20T14:32:24.996Z,39.70
2019-04-20T14:34:54.290Z,39.70
2019-04-20T14:37:23.066Z,39.60
2019-04-20T14:39:52.322Z,39.60
2019-04-20T14:42:30.415Z,40.30
2019-04-20T14:44:52.064Z,39.40
2019-04-20T14:47:21.725Z,39.30
2019-04-20T14:49:52.613Z,39.40
2019-04-20T14:52:21.795Z,39.30
2019-04-20T14:54:50.582Z,39.30
2019-04-20T14:57:19.392Z,39.30
2019-04-20T14:59:53.787Z,39.40
2019-04-20T15:02:25.812Z,39.30
2019-04-20T15:04:54.973Z,39.30
2019-04-20T15:07:24.644Z,39.30
2019-04-20T15:09:54.985Z,39.20
2019-04-20T15:12:37.856Z,39.20
2019-04-20T15:14:56.600Z,39.30
2019-04-20T15:17:37.584Z,39.40
2019-04-20T15:20:21.401Z,39.30
2019-04-20T15:22:51.862Z,39.30
2019-04-20T15:25:21.302Z,39.30
2019-04-20T15:27:50.370Z,39.30
2019-04-20T15:30:20.491Z,39.30
2019-04-20T15:32:49.334Z,39.00
2019-04-20T15:35:19.742Z,39.10
2019-04-20T15:37:49.177Z,39.00
2019-04-20T15:40:19.317Z,39.00
2019-04-20T15:42:58.058Z,39.00
2019-04-20T15:45:19.148Z,39.00
2019-04-20T15:47:48.037Z,39.10
2019-04-20T15:50:18.064Z,39.00
2019-04-20T15:52:50.927Z,39.00
2019-04-20T15:55:24.554Z,39.10
2019-04-20T15:57:48.251Z,39.10
2019-04-20T16:00:18.432Z,39.00
2019-04-20T16:02:59.137Z,39.70
2019-04-20T16:05:41.246Z,38.90
2019-04-20T16:08:28.253Z,38.90
2019-04-20T16:10:59.232Z,39.00
2019-04-20T16:13:36.028Z,38.90
2019-04-20T16:15:59.587Z,38.70
2019-04-20T16:18:28.473Z,38.90
2019-04-20T16:21:05.536Z,38.80
2019-04-20T16:23:30.432Z,39.10
2019-04-20T16:26:31.597Z,39.00
2019-04-20T16:29:01.842Z,39.00
2019-04-20T16:31:31.135Z,39.00
2019-04-20T16:34:01.069Z,39.00
2019-04-20T16:36:30.498Z,39.10
2019-04-20T16:39:00.040Z,39.00
2019-04-20T16:41:28.814Z,39.00
2019-04-20T16:43:57.570Z,39.00
2019-04-20T16:46:27.995Z,38.90
2019-04-20T16:48:57.050Z,39.00
2019-04-20T16:51:27.001Z,39.00
2019-04-20T16:53:56.280Z,39.00
2019-04-20T16:56:26.443Z,38.90
2019-04-20T16:59:01.462Z,38.90
2019-04-20T17:01:25.738Z,38.90
2019-04-20T17:04:01.818Z,39.00
2019-04-20T17:06:26.381Z,39.00
2019-04-20T17:08:56.609Z,39.00
2019-04-20T17:11:25.770Z,39.00
2019-04-20T17:13:58.005Z,39.00
2019-04-20T17:16:25.926Z,38.90
2019-04-20T17:18:55.469Z,38.80
2019-04-20T17:21:27.732Z,39.00
2019-04-20T17:23:55.465Z,39.00
2019-04-20T17:26:34.845Z,39.10
2019-04-20T17:29:15.930Z,39.00
2019-04-20T17:32:03.228Z,39.00
2019-04-20T17:34:46.880Z,39.20
2019-04-20T17:37:02.625Z,39.20
2019-04-20T17:39:45.558Z,39.20
2019-04-20T17:42:17.105Z,39.10
2019-04-20T17:44:47.279Z,39.30
2019-04-20T17:47:21.533Z,39.40
2019-04-20T17:49:51.306Z,39.40
2019-04-20T17:52:27.778Z,39.30
2019-04-20T17:54:53.447Z,39.10
2019-04-20T17:57:23.459Z,39.30
2019-04-20T18:00:03.082Z,39.40
2019-04-20T18:02:53.628Z,39.30
2019-04-20T18:05:37.035Z,39.40
2019-04-20T18:08:06.228Z,39.50
2019-04-20T18:10:31.231Z,39.60
2019-04-20T18:12:49.759Z,39.40
2019-04-20T18:15:31.421Z,39.50
2019-04-20T18:18:23.689Z,39.60
2019-04-20T18:20:56.854Z,39.50
2019-04-20T18:23:33.755Z,39.60
2019-04-20T18:26:18.539Z,39.60
2019-04-20T18:28:54.855Z,39.70
2019-04-20T18:31:09.620Z,39.80
2019-04-20T18:33:40.176Z,39.70
2019-04-20T18:36:14.307Z,39.70
2019-04-20T18:38:49.081Z,39.80
2019-04-20T18:41:20.995Z,39.80
2019-04-20T18:43:46.005Z,39.90
2019-04-20T18:46:29.395Z,39.90
2019-04-20T18:49:00.975Z,39.90
2019-04-20T18:51:12.093Z,40.00
2019-04-20T18:53:45.022Z,40.10
2019-04-20T18:56:12.264Z,40.00
2019-04-20T18:58:41.184Z,40.00
2019-04-20T19:01:10.752Z,40.00
2019-04-20T19:03:42.709Z,40.00
2019-04-20T19:06:11.230Z,40.20
2019-04-20T19:08:48.006Z,40.50
2019-04-20T19:11:17.703Z,40.60
2019-04-20T19:13:51.340Z,40.70
2019-04-20T19:16:33.426Z,40.70
2019-04-20T19:19:20.043Z,40.70
2019-04-20T19:21:40.026Z,40.40
2019-04-20T19:24:13.201Z,40.40
2019-04-20T19:26:46.633Z,40.50
2019-04-20T19:29:19.089Z,40.50
2019-04-20T19:31:56.942Z,40.60
2019-04-20T19:34:26.450Z,40.60
2019-04-20T19:36:57.145Z,40.60
2019-04-20T19:39:28.755Z,40.60
2019-04-20T19:41:51.762Z,40.50
2019-04-20T19:44:22.610Z,40.60
2019-04-20T19:47:09.119Z,40.60
2019-04-20T19:49:25.369Z,40.60
2019-04-20T19:52:16.069Z,40.60
2019-04-20T19:54:34.111Z,40.60
2019-04-20T19:56:58.544Z,40.60
2019-04-20T19:59:23.596Z,40.60
2019-04-20T20:01:45.633Z,40.70
2019-04-20T20:04:15.646Z,40.70
2019-04-20T20:06:51.090Z,40.70
2019-04-20T20:09:17.853Z,40.70
2019-04-20T20:11:46.755Z,40.70
2019-04-20T20:14:17.974Z,40.80
2019-04-20T20:17:05.393Z,40.80
2019-04-20T20:19:32.708Z,40.80
2019-04-20T20:22:02.705Z,40.80
2019-04-20T20:24:19.534Z,40.90
2019-04-20T20:26:53.494Z,40.90
2019-04-20T20:29:28.352Z,40.90
2019-04-20T20:32:02.007Z,40.90
2019-04-20T20:34:28.700Z,40.90
2019-04-20T20:36:54.577Z,40.90
2019-04-20T20:39:27.607Z,40.90
2019-04-20T20:42:04.872Z,41.00
2019-04-20T20:44:31.821Z,41.00
2019-04-20T20:47:00.867Z,41.00
2019-04-20T20:49:40.326Z,41.00
2019-04-20T20:52:12.298Z,41.10
2019-04-20T20:54:36.090Z,41.10
2019-04-20T20:57:02.843Z,41.10
2019-04-20T20:59:35.833Z,41.10
2019-04-20T21:02:05.796Z,41.20
2019-04-20T21:04:25.764Z,41.10
2019-04-20T21:06:55.110Z,41.10
2019-04-20T21:09:25.445Z,41.20
2019-04-20T21:12:01.822Z,41.20
2019-04-20T21:14:29.117Z,41.20
2019-04-20T21:17:02.936Z,41.20
2019-04-20T21:19:44.900Z,41.30
2019-04-20T21:22:04.804Z,41.30
2019-04-20T21:24:33.725Z,41.30
2019-04-20T21:27:07.881Z,41.30
2019-04-20T21:29:37.817Z,41.30
2019-04-20T21:32:09.382Z,41.40
2019-04-20T21:34:35.354Z,41.40
2019-04-20T21:37:11.601Z,41.40
2019-04-20T21:39:41.228Z,41.40
2019-04-20T21:42:11.754Z,41.40
2019-04-20T21:44:40.742Z,41.40
2019-04-20T21:47:07.220Z,41.40
2019-04-20T21:49:50.876Z,41.40
2019-04-20T21:52:18.305Z,41.40
2019-04-20T21:54:38.230Z,41.70
2019-04-20T21:57:10.974Z,42.40
2019-04-20T21:59:44.413Z,42.60
2019-04-20T22:02:17.184Z,42.90
2019-04-20T22:04:39.796Z,42.80
2019-04-20T22:07:08.580Z,42.90
2019-04-20T22:09:43.466Z,42.90
2019-04-20T22:12:07.858Z,43.00
2019-04-20T22:14:37.625Z,43.00
2019-04-20T22:17:07.848Z,42.90
2019-04-20T22:19:45.884Z,42.90
2019-04-20T22:22:18.651Z,42.90
2019-04-20T22:24:51.804Z,42.90
2019-04-20T22:27:15.837Z,42.90
2019-04-20T22:29:38.786Z,42.90
2019-04-20T22:32:10.210Z,42.90
2019-04-20T22:34:37.978Z,42.90
2019-04-20T22:37:09.785Z,42.90
2019-04-20T22:39:45.693Z,42.90
2019-04-20T22:42:13.347Z,42.90
2019-04-20T22:44:41.432Z,43.00
2019-04-20T22:47:13.968Z,42.80
2019-04-20T22:49:54.009Z,42.90
2019-04-20T22:52:27.793Z,42.80
2019-04-20T22:54:54.288Z,42.80
2019-04-20T22:57:27.754Z,42.80
2019-04-20T22:59:52.444Z,42.80
2019-04-20T23:02:13.488Z,42.80
2019-04-20T23:04:44.592Z,42.70
2019-04-20T23:07:14.756Z,42.70
2019-04-20T23:09:49.090Z,42.70
2019-04-20T23:12:18.982Z,42.70
2019-04-20T23:14:44.845Z,42.70
2019-04-20T23:17:18.415Z,42.70
2019-04-20T23:19:49.467Z,42.70
2019-04-20T23:22:16.055Z,42.60
2019-04-20T23:24:44.960Z,42.60
2019-04-20T23:27:20.023Z,42.60
2019-04-20T23:29:45.213Z,42.60
2019-04-20T23:32:17.416Z,42.60
2019-04-20T23:34:51.202Z,42.60
2019-04-20T23:37:20.498Z,42.60
2019-04-20T23:39:49.178Z,42.70
2019-04-20T23:42:21.832Z,42.60
2019-04-20T23:45:00.402Z,42.60
2019-04-20T23:47:45.735Z,42.60
2019-04-20T23:50:32.614Z,42.60
2019-04-20T23:53:01.353Z,42.60
2019-04-20T23:55:13.987Z,42.50
2019-04-20T23:57:46.099Z,42.50
